Time;durP1;ratioP1;P1;durP2;ratioP2;P2;SDS_P1;SDS_P2;PMS_P1;PMS_P2;Temp;Humidity;BMP_temperature;BMP_pressure;BME280_temperature;BME280_humidity;BME280_pressure;Samples;Min_cycle;Max_cycle;Signal;HPM_P1;HPM_P2
2022/03/17 00:01:20;;;;;;;5.60;2.20;;;;;;;;;;5072691;28;20095;-74
2022/03/17 00:03:47;;;;;;;4.60;1.92;;;;;;;;;;5060940;28;20032;-74
2022/03/17 00:06:14;;;;;;;3.38;1.98;;;;;;;;;;5052687;28;20067;-74
2022/03/17 00:08:41;;;;;;;3.38;2.30;;;;;;;;;;5048257;28;20074;-74
2022/03/17 00:11:07;;;;;;;2.70;1.67;;;;;;;;;;5049603;28;21741;-73
2022/03/17 00:13:34;;;;;;;4.53;1.98;;;;;;;;;;5065684;28;20489;-73
2022/03/17 00:16:01;;;;;;;4.47;2.50;;;;;;;;;;5067335;28;20033;-74
2022/03/17 00:18:28;;;;;;;6.63;2.07;;;;;;;;;;5070194;28;20024;-74
2022/03/17 00:20:54;;;;;;;5.93;1.83;;;;;;;;;;5071335;28;20146;-74
2022/03/17 00:23:22;;;;;;;3.70;1.90;;;;;;;;;;5052325;28;20017;-73
2022/03/17 00:25:49;;;;;;;5.10;1.80;;;;;;;;;;5052225;28;20082;-74
2022/03/17 00:28:16;;;;;;;6.00;2.00;;;;;;;;;;5051923;28;20021;-74
2022/03/17 00:30:42;;;;;;;4.47;1.83;;;;;;;;;;5049027;28;20032;-74
2022/03/17 00:33:09;;;;;;;5.03;1.60;;;;;;;;;;5065727;28;20048;-74
2022/03/17 00:35:36;;;;;;;4.30;1.63;;;;;;;;;;5066762;28;20109;-74
2022/03/17 00:38:05;;;;;;;2.60;1.50;;;;;;;;;;5066848;28;20035;-73
2022/03/17 00:40:31;;;;;;;4.63;1.90;;;;;;;;;;5058017;28;20071;-74
2022/03/17 00:42:59;;;;;;;4.17;2.17;;;;;;;;;;5052040;28;20032;-74
2022/03/17 00:45:26;;;;;;;3.50;1.63;;;;;;;;;;5051737;28;20074;-74
2022/03/17 00:47:53;;;;;;;3.00;1.50;;;;;;;;;;5051877;28;20025;-74
2022/03/17 00:50:19;;;;;;;6.20;2.80;;;;;;;;;;5060746;28;20039;-73
2022/03/17 00:52:46;;;;;;;4.63;2.30;;;;;;;;;;5069207;28;20034;-73
2022/03/17 00:55:14;;;;;;;6.30;2.90;;;;;;;;;;5066786;28;20033;-73
2022/03/17 00:57:41;;;;;;;5.30;2.63;;;;;;;;;;5066874;28;20115;-73
2022/03/17 01:00:14;;;;;;;4.63;2.53;;;;;;;;;;5064573;28;20062;-73
2022/03/17 01:02:42;;;;;;;6.00;2.80;;;;;;;;;;5068741;28;20033;-73
2022/03/17 01:05:10;;;;;;;6.10;2.57;;;;;;;;;;5070455;28;20525;-73
2022/03/17 01:07:40;;;;;;;6.63;2.57;;;;;;;;;;5071761;28;20024;-73
2022/03/17 01:10:11;;;;;;;4.17;2.37;;;;;;;;;;5054687;28;20028;-73
2022/03/17 01:12:38;;;;;;;6.97;2.40;;;;;;;;;;5051780;28;20026;-73
2022/03/17 01:15:05;;;;;;;4.00;2.60;;;;;;;;;;5049127;28;20033;-73
2022/03/17 01:17:32;;;;;;;4.60;2.73;;;;;;;;;;5046538;28;20879;-74
2022/03/17 01:19:59;;;;;;;17.53;7.00;;;;;;;;;;5061494;28;20372;-74
2022/03/17 01:22:26;;;;;;;8.40;3.80;;;;;;;;;;5066281;28;20031;-74
2022/03/17 01:24:52;;;;;;;8.23;3.37;;;;;;;;;;5070092;28;20048;-74
2022/03/17 01:27:20;;;;;;;14.17;2.77;;;;;;;;;;5075657;28;20027;-73
2022/03/17 01:29:50;;;;;;;10.10;2.50;;;;;;;;;;5061579;28;20472;-74
2022/03/17 01:32:17;;;;;;;4.73;2.37;;;;;;;;;;5054941;28;20376;-74
2022/03/17 01:34:44;;;;;;;6.00;2.93;;;;;;;;;;5055387;28;20424;-73
2022/03/17 01:37:11;;;;;;;9.97;3.13;;;;;;;;;;5053220;28;20058;-74
2022/03/17 01:39:38;;;;;;;5.93;2.73;;;;;;;;;;5061482;28;20032;-74
2022/03/17 01:42:06;;;;;;;6.50;1.80;;;;;;;;;;5069941;28;20020;-74
2022/03/17 01:44:33;;;;;;;9.27;2.13;;;;;;;;;;5069825;28;20017;-74
2022/03/17 01:49:46;;;;;;;5.87;2.23;;;;;;;;;;5062142;28;20083;-73
2022/03/17 01:52:13;;;;;;;6.10;2.30;;;;;;;;;;5054947;28;20025;-74
2022/03/17 01:54:40;;;;;;;5.27;2.27;;;;;;;;;;5055134;28;20070;-74
2022/03/17 01:57:07;;;;;;;10.30;2.73;;;;;;;;;;5055024;28;20017;-73
2022/03/17 01:59:35;;;;;;;4.23;2.33;;;;;;;;;;5063640;28;20086;-73
2022/03/17 02:02:04;;;;;;;5.67;3.17;;;;;;;;;;5069370;28;20028;-73
2022/03/17 02:04:31;;;;;;;13.10;2.90;;;;;;;;;;5070052;28;20017;-73
2022/03/17 02:06:58;;;;;;;6.63;2.37;;;;;;;;;;5069409;28;20059;-73
2022/03/17 02:09:26;;;;;;;4.53;2.30;;;;;;;;;;5060837;28;20021;-73
2022/03/17 02:14:53;;;;;;;4.83;2.20;;;;;;;;;;5054388;28;20040;-73
2022/03/17 02:17:20;;;;;;;4.43;1.93;;;;;;;;;;5054557;28;20383;-73
2022/03/17 02:19:47;;;;;;;4.13;1.90;;;;;;;;;;5066607;28;20028;-73
2022/03/17 02:22:15;;;;;;;5.37;2.43;;;;;;;;;;5071839;28;20055;-73
2022/03/17 02:27:33;;;;;;;7.47;2.43;;;;;;;;;;5069305;28;20098;-73
2022/03/17 02:30:03;;;;;;;6.70;2.17;;;;;;;;;;5067160;28;20025;-73
2022/03/17 02:32:29;;;;;;;4.43;2.57;;;;;;;;;;5071815;28;20054;-73
2022/03/17 02:34:56;;;;;;;6.93;2.40;;;;;;;;;;5073783;28;20040;-73
2022/03/17 02:37:24;;;;;;;3.40;2.07;;;;;;;;;;5073307;28;20023;-73
2022/03/17 02:39:51;;;;;;;5.10;2.40;;;;;;;;;;5061395;28;20031;-73
2022/03/17 02:42:18;;;;;;;4.20;2.50;;;;;;;;;;5054231;28;20013;-73
2022/03/17 02:44:47;;;;;;;4.33;2.23;;;;;;;;;;5051136;28;20025;-73
2022/03/17 02:47:14;;;;;;;4.53;2.30;;;;;;;;;;5048628;28;20494;-73
2022/03/17 02:49:41;;;;;;;3.73;2.20;;;;;;;;;;5059204;28;20024;-73
2022/03/17 02:52:08;;;;;;;5.67;2.40;;;;;;;;;;5068358;28;20379;-73
2022/03/17 02:54:34;;;;;;;5.70;2.40;;;;;;;;;;5066467;28;20032;-73
2022/03/17 02:57:01;;;;;;;5.33;2.50;;;;;;;;;;5073971;28;20028;-72
2022/03/17 02:59:28;;;;;;;5.77;2.53;;;;;;;;;;5073677;28;20025;-73
2022/03/17 03:01:55;;;;;;;7.63;3.20;;;;;;;;;;5073867;28;20028;-73
2022/03/17 03:04:23;;;;;;;3.17;2.10;;;;;;;;;;5057954;28;20029;-73
2022/03/17 03:06:50;;;;;;;6.00;1.97;;;;;;;;;;5051440;28;20048;-74
2022/03/17 03:09:17;;;;;;;4.43;2.40;;;;;;;;;;5065706;28;20036;-73
2022/03/17 03:11:44;;;;;;;3.50;1.80;;;;;;;;;;5068163;28;20032;-73
2022/03/17 03:14:11;;;;;;;8.63;1.90;;;;;;;;;;5068281;28;20031;-73
2022/03/17 03:16:38;;;;;;;3.30;2.03;;;;;;;;;;5069475;28;20053;-74
2022/03/17 03:19:05;;;;;;;4.20;2.20;;;;;;;;;;5057954;28;20056;-73
2022/03/17 03:21:32;;;;;;;4.97;2.67;;;;;;;;;;5053171;28;20017;-74
2022/03/17 03:23:59;;;;;;;6.23;2.93;;;;;;;;;;5068338;28;20073;-74
2022/03/17 03:26:26;;;;;;;8.27;3.37;;;;;;;;;;5072891;28;20040;-74
2022/03/17 03:28:54;;;;;;;5.20;2.27;;;;;;;;;;5071413;28;20375;-74
2022/03/17 03:31:23;;;;;;;3.87;2.33;;;;;;;;;;5067927;28;20514;-73
2022/03/17 03:33:50;;;;;;;4.40;2.50;;;;;;;;;;5054583;28;20153;-74
2022/03/17 03:39:02;;;;;;;6.32;2.45;;;;;;;;;;5048984;28;20105;-73
2022/03/17 03:41:29;;;;;;;8.53;2.47;;;;;;;;;;5053023;28;20055;-73
2022/03/17 03:43:56;;;;;;;6.30;2.77;;;;;;;;;;5066245;28;20495;-73
2022/03/17 03:46:23;;;;;;;8.73;2.50;;;;;;;;;;5072742;28;20059;-73
2022/03/17 03:48:50;;;;;;;5.07;2.60;;;;;;;;;;5072887;28;20025;-73
2022/03/17 03:51:17;;;;;;;3.87;1.90;;;;;;;;;;5070971;28;20024;-73
2022/03/17 03:56:31;;;;;;;3.95;2.40;;;;;;;;;;5047504;28;20048;-73
2022/03/17 03:59:03;;;;;;;5.20;2.23;;;;;;;;;;5047691;28;20028;-73
2022/03/17 04:01:32;;;;;;;8.67;2.50;;;;;;;;;;5049583;28;20025;-73
2022/03/17 04:04:01;;;;;;;10.10;4.00;;;;;;;;;;5065892;28;20068;-73
2022/03/17 04:06:29;;;;;;;4.10;2.40;;;;;;;;;;5072301;28;20028;-73
2022/03/17 04:08:55;;;;;;;9.63;2.40;;;;;;;;;;5072627;28;20028;-73
2022/03/17 04:11:22;;;;;;;6.03;2.50;;;;;;;;;;5072461;28;20099;-74
2022/03/17 04:13:49;;;;;;;3.87;1.90;;;;;;;;;;5057751;28;20041;-74
2022/03/17 04:16:16;;;;;;;7.53;2.30;;;;;;;;;;5047504;28;20032;-74
2022/03/17 04:18:44;;;;;;;4.10;2.33;;;;;;;;;;5048151;28;20037;-73
2022/03/17 04:21:11;;;;;;;5.03;2.40;;;;;;;;;;5047108;28;20040;-73
2022/03/17 04:23:38;;;;;;;5.80;2.00;;;;;;;;;;5048263;28;20028;-73
2022/03/17 04:26:05;;;;;;;5.13;2.30;;;;;;;;;;5052419;28;20154;-73
2022/03/17 17:53:21;;;;;;;6.05;3.75;;;;;;;;;;5063557;28;20106;-71
2022/03/17 17:55:51;;;;;;;7.28;3.42;;;;;;;;;;5054955;28;20033;-71
2022/03/17 17:58:18;;;;;;;5.13;3.53;;;;;;;;;;5053834;28;20278;-72
2022/03/17 18:00:46;;;;;;;7.30;3.15;;;;;;;;;;5069526;28;20089;-71
2022/03/17 18:03:13;;;;;;;8.68;3.33;;;;;;;;;;5067674;28;20027;-72
2022/03/17 18:05:39;;;;;;;5.47;3.08;;;;;;;;;;5069211;28;20387;-72
2022/03/17 18:08:06;;;;;;;5.07;2.50;;;;;;;;;;5072283;28;20213;-72
2022/03/17 18:10:33;;;;;;;6.18;3.17;;;;;;;;;;5072171;28;20016;-72
2022/03/17 18:13:00;;;;;;;5.32;2.58;;;;;;;;;;5047590;28;20028;-72
2022/03/17 18:15:28;;;;;;;5.82;3.08;;;;;;;;;;5060086;28;20103;-71
2022/03/17 18:17:57;;;;;;;6.00;3.00;;;;;;;;;;5073972;28;20021;-73
2022/03/17 18:20:24;;;;;;;10.50;3.38;;;;;;;;;;5072021;28;20028;-72
2022/03/17 18:22:51;;;;;;;5.68;2.88;;;;;;;;;;5066198;28;20023;-72
2022/03/17 18:25:18;;;;;;;8.00;3.67;;;;;;;;;;5051604;28;20020;-72
2022/03/17 18:27:46;;;;;;;7.60;3.42;;;;;;;;;;5049350;28;20048;-71
2022/03/17 18:30:13;;;;;;;7.03;3.10;;;;;;;;;;5051755;28;20025;-72
2022/03/17 18:32:40;;;;;;;5.55;3.33;;;;;;;;;;5054508;28;20488;-72
2022/03/17 18:35:07;;;;;;;11.43;3.63;;;;;;;;;;5055395;28;20041;-71
2022/03/17 18:37:34;;;;;;;7.63;3.50;;;;;;;;;;5074032;28;20386;-72
2022/03/17 18:40:00;;;;;;;10.57;3.90;;;;;;;;;;5074045;28;20035;-72
2022/03/17 18:42:27;;;;;;;10.10;3.70;;;;;;;;;;5058339;28;20025;-72
2022/03/17 18:44:54;;;;;;;4.65;3.22;;;;;;;;;;5048827;28;20021;-72
2022/03/17 18:47:21;;;;;;;7.40;3.70;;;;;;;;;;5029075;28;20056;-72
2022/03/17 18:49:48;;;;;;;7.63;3.72;;;;;;;;;;5067092;28;20467;-72
2022/03/17 18:52:16;;;;;;;8.57;3.30;;;;;;;;;;5067206;28;20048;-72
2022/03/17 18:54:43;;;;;;;17.55;4.00;;;;;;;;;;5053864;28;20067;-72
2022/03/17 18:57:09;;;;;;;5.63;3.10;;;;;;;;;;5072344;28;20032;-71
2022/03/17 18:59:36;;;;;;;8.85;3.72;;;;;;;;;;5060069;28;20048;-72
2022/03/17 19:02:03;;;;;;;11.82;4.57;;;;;;;;;;5054281;28;20376;-72
2022/03/17 19:04:30;;;;;;;12.75;4.20;;;;;;;;;;5052744;28;20032;-72
2022/03/17 19:06:57;;;;;;;20.10;4.93;;;;;;;;;;5064002;28;20033;-72
2022/03/17 19:09:23;;;;;;;8.48;4.25;;;;;;;;;;5048569;28;20033;-71
2022/03/17 19:11:52;;;;;;;12.15;4.25;;;;;;;;;;5053706;28;20029;-72
2022/03/17 19:14:20;;;;;;;11.85;5.03;;;;;;;;;;5069399;28;20058;-71
2022/03/17 19:16:49;;;;;;;10.52;5.03;;;;;;;;;;5058320;28;20485;-72
2022/03/17 19:19:18;;;;;;;7.00;3.97;;;;;;;;;;5052785;28;20032;-72
2022/03/17 19:21:48;;;;;;;12.90;4.82;;;;;;;;;;5053646;28;20021;-71
2022/03/17 19:24:15;;;;;;;7.80;3.88;;;;;;;;;;5053240;28;20557;-72
2022/03/17 19:26:46;;;;;;;11.32;4.70;;;;;;;;;;5065162;28;20538;-72
2022/03/17 19:29:12;;;;;;;6.45;4.15;;;;;;;;;;5068121;28;20364;-71
2022/03/17 19:31:39;;;;;;;8.82;4.40;;;;;;;;;;5057391;28;20070;-71
2022/03/17 19:34:06;;;;;;;7.55;4.47;;;;;;;;;;5060637;28;20114;-71
2022/03/17 19:36:32;;;;;;;7.60;3.88;;;;;;;;;;5055991;28;20429;-72
2022/03/17 19:38:59;;;;;;;15.27;4.20;;;;;;;;;;5052716;28;20035;-71
2022/03/17 19:41:27;;;;;;;10.18;4.90;;;;;;;;;;5068181;28;20485;-71
2022/03/17 19:43:54;;;;;;;4.40;3.50;;;;;;;;;;5053718;28;20029;-72
2022/03/17 19:46:21;;;;;;;9.65;3.83;;;;;;;;;;5063689;28;20047;-71
2022/03/17 19:48:51;;;;;;;5.22;3.80;;;;;;;;;;5061353;28;20060;-72
2022/03/17 19:51:18;;;;;;;10.70;4.20;;;;;;;;;;5047853;28;20025;-71
2022/03/17 19:53:45;;;;;;;7.57;4.00;;;;;;;;;;5047626;28;20067;-72
2022/03/17 19:56:13;;;;;;;8.85;3.97;;;;;;;;;;5056123;28;20071;-72
2022/03/17 19:58:40;;;;;;;5.95;3.60;;;;;;;;;;5055551;28;20048;-72
2022/03/17 20:01:09;;;;;;;5.68;3.80;;;;;;;;;;5052990;28;20027;-71
2022/03/17 20:03:36;;;;;;;7.03;4.03;;;;;;;;;;5060502;28;20012;-72
2022/03/17 20:06:03;;;;;;;6.65;3.92;;;;;;;;;;5064590;28;20029;-71
2022/03/17 20:08:31;;;;;;;6.38;3.03;;;;;;;;;;5060718;28;20052;-71
2022/03/17 20:13:43;;;;;;;6.03;3.00;;;;;;;;;;5056118;28;20465;-71
2022/03/17 20:16:11;;;;;;;8.15;3.40;;;;;;;;;;5047506;28;20024;-72
2022/03/17 20:18:38;;;;;;;8.40;3.20;;;;;;;;;;5048520;28;20021;-72
2022/03/17 20:21:05;;;;;;;12.48;3.13;;;;;;;;;;5048108;28;20059;-71
2022/03/17 20:23:32;;;;;;;8.50;3.10;;;;;;;;;;5051924;28;20025;-72
2022/03/17 20:25:59;;;;;;;7.00;2.97;;;;;;;;;;5052257;28;20029;-72
2022/03/17 20:28:26;;;;;;;3.92;2.83;;;;;;;;;;5058715;28;20056;-72
2022/03/17 20:30:53;;;;;;;6.63;2.97;;;;;;;;;;5059224;28;20535;-72
2022/03/17 20:33:20;;;;;;;12.95;3.22;;;;;;;;;;5051358;28;20474;-71
2022/03/17 20:35:46;;;;;;;10.75;3.10;;;;;;;;;;5046897;28;20444;-72
2022/03/17 20:38:13;;;;;;;3.88;2.40;;;;;;;;;;5046978;28;20112;-72
2022/03/17 20:40:40;;;;;;;6.03;3.00;;;;;;;;;;5056599;28;20461;-71
2022/03/17 20:43:07;;;;;;;5.10;2.40;;;;;;;;;;5066535;28;20036;-71
2022/03/17 20:45:33;;;;;;;6.25;2.67;;;;;;;;;;5054521;28;20033;-72
2022/03/17 20:48:00;;;;;;;7.18;3.28;;;;;;;;;;5067456;28;20448;-72
2022/03/17 20:50:27;;;;;;;5.07;2.83;;;;;;;;;;5059886;28;20029;-72
2022/03/17 20:52:54;;;;;;;7.25;2.50;;;;;;;;;;5059811;28;20919;-72
2022/03/17 20:55:22;;;;;;;9.85;3.10;;;;;;;;;;5051715;28;20079;-72
2022/03/17 20:57:49;;;;;;;4.90;2.38;;;;;;;;;;5053568;28;20601;-72
2022/03/17 21:00:18;;;;;;;6.70;2.45;;;;;;;;;;5067076;28;20032;-71
2022/03/17 21:02:45;;;;;;;7.90;3.10;;;;;;;;;;5057670;28;20024;-72
2022/03/17 21:05:12;;;;;;;15.32;5.35;;;;;;;;;;5066487;28;20029;-71
2022/03/17 21:07:42;;;;;;;6.63;2.70;;;;;;;;;;5071383;28;20055;-71
2022/03/17 21:10:10;;;;;;;4.07;2.40;;;;;;;;;;5069817;28;20021;-71
2022/03/17 21:12:39;;;;;;;5.30;2.30;;;;;;;;;;5062922;28;20171;-71
2022/03/17 21:15:06;;;;;;;7.18;2.38;;;;;;;;;;5051928;28;20033;-72
2022/03/17 21:17:34;;;;;;;9.77;2.80;;;;;;;;;;5066116;28;20480;-72
2022/03/17 21:20:02;;;;;;;8.18;2.30;;;;;;;;;;5066394;28;20111;-71
2022/03/17 21:22:29;;;;;;;7.53;2.35;;;;;;;;;;5059435;28;20028;-72
2022/03/17 21:24:55;;;;;;;5.20;2.65;;;;;;;;;;5046602;28;20110;-71
2022/03/17 21:27:22;;;;;;;9.43;3.67;;;;;;;;;;5046549;28;20021;-71
2022/03/17 21:29:49;;;;;;;8.23;3.35;;;;;;;;;;5050492;28;20114;-72
2022/03/17 21:32:18;;;;;;;12.82;3.65;;;;;;;;;;5056735;28;20367;-71
2022/03/17 21:34:46;;;;;;;8.20;2.35;;;;;;;;;;5062919;28;20033;-71
2022/03/17 21:37:13;;;;;;;11.02;2.50;;;;;;;;;;5070537;28;20379;-71
2022/03/17 21:39:40;;;;;;;9.35;2.60;;;;;;;;;;5063896;28;20033;-72
2022/03/17 21:42:08;;;;;;;13.30;2.53;;;;;;;;;;5049688;28;20472;-71
2022/03/17 21:44:35;;;;;;;9.82;2.20;;;;;;;;;;5050335;28;20017;-71
2022/03/17 21:47:05;;;;;;;10.10;2.33;;;;;;;;;;5061612;28;20074;-71
2022/03/17 21:49:32;;;;;;;7.82;2.55;;;;;;;;;;5053779;28;20029;-71
2022/03/17 21:52:00;;;;;;;5.40;2.28;;;;;;;;;;5053852;28;20041;-71
2022/03/17 21:54:27;;;;;;;8.50;2.47;;;;;;;;;;5055115;28;20033;-71
2022/03/17 21:56:54;;;;;;;7.93;2.20;;;;;;;;;;5065212;28;20066;-72
2022/03/17 21:59:21;;;;;;;12.63;2.47;;;;;;;;;;5073217;28;20029;-72
2022/03/17 22:01:48;;;;;;;7.22;2.15;;;;;;;;;;5054676;28;20048;-72
2022/03/17 22:04:16;;;;;;;4.00;2.45;;;;;;;;;;5062190;28;20475;-71
2022/03/17 22:06:43;;;;;;;5.00;2.60;;;;;;;;;;5060614;28;20144;-72
2022/03/17 22:09:11;;;;;;;3.92;1.70;;;;;;;;;;5049564;28;20017;-71
2022/03/17 22:11:38;;;;;;;4.40;1.98;;;;;;;;;;5049720;28;20075;-71
2022/03/17 22:14:05;;;;;;;3.38;2.20;;;;;;;;;;5053033;28;20075;-71
2022/03/17 22:16:32;;;;;;;4.10;2.20;;;;;;;;;;5061355;28;20410;-71
2022/03/17 22:18:59;;;;;;;7.68;3.10;;;;;;;;;;5068886;28;20033;-73
2022/03/17 22:21:26;;;;;;;4.80;2.15;;;;;;;;;;5074293;28;20029;-71
2022/03/17 22:23:53;;;;;;;3.78;2.15;;;;;;;;;;5074548;28;20028;-72
2022/03/17 22:26:20;;;;;;;4.93;2.25;;;;;;;;;;5070712;28;20024;-71
2022/03/17 22:28:46;;;;;;;6.75;2.63;;;;;;;;;;5068914;28;20389;-72
2022/03/17 22:31:13;;;;;;;6.40;2.10;;;;;;;;;;5051219;28;20020;-71
2022/03/17 22:33:40;;;;;;;4.28;2.33;;;;;;;;;;5049145;28;20033;-71
2022/03/17 22:36:10;;;;;;;3.47;2.30;;;;;;;;;;5051718;28;20062;-71
2022/03/17 22:38:37;;;;;;;2.83;1.90;;;;;;;;;;5054579;28;20490;-72
2022/03/17 22:43:49;;;;;;;4.28;2.38;;;;;;;;;;5054002;28;20036;-72
2022/03/17 22:46:16;;;;;;;3.95;1.80;;;;;;;;;;5073849;28;20137;-72
2022/03/17 22:48:42;;;;;;;3.67;2.35;;;;;;;;;;5069219;28;20036;-71
2022/03/17 22:51:10;;;;;;;5.57;2.30;;;;;;;;;;5051834;28;20025;-72
2022/03/17 22:53:37;;;;;;;13.23;2.22;;;;;;;;;;5047361;28;20025;-72
2022/03/17 22:56:04;;;;;;;8.13;2.35;;;;;;;;;;5048720;28;20033;-72
2022/03/17 22:58:31;;;;;;;6.18;2.17;;;;;;;;;;5066627;28;20090;-73
2022/03/17 23:00:58;;;;;;;4.95;2.50;;;;;;;;;;5070053;28;20021;-72
2022/03/17 23:03:25;;;;;;;5.55;2.58;;;;;;;;;;5069702;28;20040;-72
2022/03/17 23:05:52;;;;;;;5.82;2.45;;;;;;;;;;5057390;28;20032;-72
2022/03/17 23:08:20;;;;;;;6.03;2.80;;;;;;;;;;5073488;28;20118;-72
2022/03/17 23:10:48;;;;;;;5.10;2.50;;;;;;;;;;5069892;28;20322;-71
2022/03/17 23:13:16;;;;;;;4.10;2.42;;;;;;;;;;5068384;28;20071;-72
2022/03/17 23:15:44;;;;;;;5.90;2.78;;;;;;;;;;5067862;28;20412;-72
2022/03/17 23:18:11;;;;;;;6.25;3.42;;;;;;;;;;5055877;28;20392;-71
2022/03/17 23:20:38;;;;;;;9.48;4.57;;;;;;;;;;5050817;28;20112;-71
2022/03/17 23:23:05;;;;;;;6.82;3.92;;;;;;;;;;5070351;28;20024;-71
2022/03/17 23:25:34;;;;;;;10.80;3.67;;;;;;;;;;5073057;28;20059;-71
2022/03/17 23:28:01;;;;;;;6.82;2.80;;;;;;;;;;5062873;28;20079;-71
2022/03/17 23:30:28;;;;;;;11.07;3.67;;;;;;;;;;5054238;28;20033;-72
2022/03/17 23:32:55;;;;;;;8.82;3.47;;;;;;;;;;5053863;28;20032;-71
2022/03/17 23:35:22;;;;;;;8.33;3.13;;;;;;;;;;5067309;28;20033;-71
2022/03/17 23:37:52;;;;;;;4.20;2.83;;;;;;;;;;5058992;28;20052;-71
2022/03/17 23:40:22;;;;;;;5.40;2.70;;;;;;;;;;5060126;28;20480;-71
2022/03/17 23:42:54;;;;;;;9.17;2.93;;;;;;;;;;5069980;28;20047;-71
2022/03/17 23:45:21;;;;;;;6.23;2.87;;;;;;;;;;5072870;28;20028;-71
2022/03/17 23:47:49;;;;;;;6.63;3.47;;;;;;;;;;5061820;28;20035;-71
2022/03/17 23:50:15;;;;;;;4.97;2.77;;;;;;;;;;5052958;28;20032;-71
2022/03/17 23:52:42;;;;;;;5.17;2.60;;;;;;;;;;5062022;28;20024;-71
2022/03/17 23:55:10;;;;;;;10.93;2.60;;;;;;;;;;5069872;28;20079;-71
2022/03/17 23:57:38;;;;;;;5.73;2.43;;;;;;;;;;5061563;28;20140;-71
